If you wish to contribute or participate in the discussions about articles you are invited to join SKYbrary as a registered user

 Actions

Biskra Airport

From SKYbrary Wiki

DAUB
Airport
ICAO: DAUB – IATA: BSK
Summary
Name Biskra Airport
Region Africa
Territory Algeria DZ.gif
Location , Biskra
Serving Biskra
Elevation 88.087 m
289 ft
289 ft88.087 m
Type medium airport
Coordinates 34° 47' 35.84" N, 5° 44' 17.63" E
Runways
Designator Length Width Surface ROPS
13/31 2886 m9,468.504 ft
45 m147.638 ft
ASP /


METAR
Observation DAUB 241300Z 30010KT CAVOK 30/05 Q1008
Station Biskra
Date/Time 24 April 2019 13:00:00
Wind direction 300°
Wind speed 10 kts
Lowest cloud amount clouds and visibility OK
Temperature 30°C
Dew point 5°C
Humidity 20%
QNH 1008 hPa
Weather condition n/a